Terminal Aerodrome Forecast
Issued by NWS

Home | Current Version | Previous Version | Text Only | Print | Product List | Glossary Off
Versions: 1 2 3 4 5 6 7 8 9 10 11 12 13 14 15 16 17 18

000
FTUS42 KMHX 272324
TAFOAJ
TAF
KOAJ 272324Z 2800/2824 21010G15KT P6SM VCSH BKN150
     FM280300 22010KT 5SM -RA VCTS BKN030CB
     FM280400 22008KT P6SM SCT030
     FM281100 27009KT P6SM SCT250
     FM281700 27010KT P6SM SCT040
      AMD LTD TO CLD VIS AND WIND=

USA.gov is the U.S. government's official web portal to all federal, state and local government web resources and services.